Atlanticbeach, North Carolina
Current Conditions -  °F | °C
As of 5:58 PM on Saturday 20 Dec 2014 (Local Time) from KMRH Reporting Station
Overcast Overcast  
Wind Chill:   Ceiling: 11000
Heat Index:   Visibility: 10mi
Dew Point:   Wind: 3mph
Humidity: 89%   Direction: 30°NNE
Pressure: 30.27"   Gusts: NA
Location:  34.6984°N, 76.7775°W
Report Text: KMRH 202258Z AUTO 03003KT 10SM FEW075 OVC110 05/03 A3027 RMK AO2 RAE32 SLP249 P0000 I1000 T00500033 TSNO
Loading
Personal Weather Stations






























Interactive Weather Map New forecast layout! Learn more

10-Day Weather Forecast

Advertisements
Track Severe Weather on mobile